Check out our new BloomSky Weather System.

Active alerts


No alerts


Thunder radar  blitzortung!


Rain radar more information rain snow radar


Visit our other weather sites:

Template documentation
and downloads

And another site



Weather Underground History page Text

Daily Summary for August 22, 2017 Units:  English    Metric   Both
« Previous Day
Next Day »
Daily Weekly Monthly Yearly Custom
  High: Low: Average:
Temperature: 97.0 °F 75.6 °F 86.2 °F
Dew Point: 79.5 °F 70.9 °F 75 °F
Humidity: 97 % 44 % 72 %
Wind Speed: 8.0 mph 0.0 mph 1.4 mph
Wind Gust: 11.0 mph - -
Wind:- - SSE
Pressure: 30.07 in 29.94 in -
Precipitation: 0.00 in    
Historical Graphs
 
 
Tabular Data for August 22, 2017
Time Temperature Dew Point Pressure Wind Wind Speed Wind Gust Humidity Rainfall Rate (Hourly)
00:04 81.1 °F 76.3 °F 30.06 in Calm     85 % 0.00 in
00:09 81.0 °F 76.1 °F 30.06 in Calm     85 % 0.00 in
00:14 81.0 °F 76.1 °F 30.06 in Calm   1.0 mph 85 % 0.00 in
00:19 80.8 °F 76.3 °F 30.05 in Calm   1.0 mph 86 % 0.00 in
00:24 80.4 °F 75.9 °F 30.06 in Calm   1.0 mph 86 % 0.00 in
00:29 80.2 °F 76.1 °F 30.05 in Calm     87 % 0.00 in
00:34 80.2 °F 76.1 °F 30.05 in Calm     87 % 0.00 in
00:39 80.2 °F 76.1 °F 30.05 in Calm     87 % 0.00 in
00:44 80.1 °F 75.9 °F 30.05 in Calm   1.0 mph 87 % 0.00 in
00:49 80.1 °F 75.9 °F 30.05 in Calm   1.0 mph 87 % 0.00 in
00:54 79.9 °F 75.7 °F 30.05 in Calm   1.0 mph 87 % 0.00 in
00:59 79.7 °F 75.6 °F 30.05 in Calm     87 % 0.00 in
01:04 79.5 °F 75.6 °F 30.05 in Calm     88 % 0.00 in
01:09 79.3 °F 75.6 °F 30.04 in Calm     88 % 0.00 in
01:14 79.0 °F 75.4 °F 30.04 in Calm     89 % 0.00 in
01:19 78.8 °F 75.2 °F 30.04 in Calm     89 % 0.00 in
01:24 78.4 °F 74.8 °F 30.04 in Calm     89 % 0.00 in
01:30 78.4 °F 75.2 °F 30.04 in Calm     90 % 0.00 in
01:35 78.3 °F 75.0 °F 30.04 in Calm     90 % 0.00 in
01:40 78.1 °F 74.8 °F 30.04 in Calm     90 % 0.00 in
01:45 78.1 °F 75.2 °F 30.03 in Calm     91 % 0.00 in
01:49 78.1 °F 75.2 °F 30.03 in Calm     91 % 0.00 in
01:55 78.1 °F 75.2 °F 30.03 in Calm     91 % 0.00 in
02:00 78.1 °F 75.6 °F 30.03 in Calm     92 % 0.00 in
02:05 77.9 °F 75.4 °F 30.03 in Calm     92 % 0.00 in
02:10 77.9 °F 75.4 °F 30.03 in Calm     92 % 0.00 in
02:15 77.7 °F 75.2 °F 30.03 in Calm     92 % 0.00 in
02:20 77.7 °F 75.2 °F 30.03 in Calm     92 % 0.00 in
02:25 77.5 °F 75.0 °F 30.03 in Calm     92 % 0.00 in
02:30 77.7 °F 75.2 °F 30.02 in Calm     92 % 0.00 in
02:35 77.7 °F 75.2 °F 30.02 in Calm     92 % 0.00 in
02:40 77.5 °F 75.0 °F 30.02 in Calm     92 % 0.00 in
02:45 77.4 °F 74.8 °F 30.02 in Calm     92 % 0.00 in
02:50 77.2 °F 74.7 °F 30.01 in Calm     92 % 0.00 in
02:55 77.0 °F 74.5 °F 30.01 in Calm     92 % 0.00 in
03:00 76.8 °F 74.3 °F 30.01 in Calm     92 % 0.00 in
03:10 76.8 °F 74.7 °F 30.01 in Calm     93 % 0.00 in
03:15 76.8 °F 74.7 °F 30.01 in Calm     93 % 0.00 in
03:20 76.8 °F 75.0 °F 30.01 in Calm     94 % 0.00 in
03:25 76.8 °F 74.7 °F 30.01 in Calm     93 % 0.00 in
03:30 76.8 °F 74.7 °F 30.01 in Calm     93 % 0.00 in
03:35 76.8 °F 75.0 °F 30.01 in Calm     94 % 0.00 in
03:40 76.8 °F 75.0 °F 30.01 in Calm     94 % 0.00 in
03:46 77.0 °F 75.2 °F 30.01 in Calm     94 % 0.00 in
03:51 77.0 °F 75.2 °F 30.01 in Calm     94 % 0.00 in
03:55 76.8 °F 75.0 °F 30.01 in Calm     94 % 0.00 in
04:00 76.8 °F 75.0 °F 30.01 in Calm     94 % 0.00 in
04:06 76.6 °F 74.8 °F 30.01 in Calm     94 % 0.00 in
04:11 76.6 °F 74.8 °F 30.01 in Calm     94 % 0.00 in
04:16 76.6 °F 75.0 °F 30.01 in Calm     95 % 0.00 in
04:17 76.6 °F 75.0 °F 30.00 in Calm     95 % 0.00 in
04:22 76.6 °F 75.0 °F 30.00 in Calm     95 % 0.00 in
04:26 76.6 °F 74.8 °F 30.00 in Calm     94 % 0.00 in
04:31 76.6 °F 74.8 °F 30.01 in Calm     94 % 0.00 in
04:36 76.5 °F 74.7 °F 30.01 in Calm     94 % 0.00 in
04:41 76.3 °F 74.5 °F 30.01 in Calm     94 % 0.00 in
04:46 76.1 °F 74.3 °F 30.01 in Calm     94 % 0.00 in
04:51 75.9 °F 74.3 °F 30.01 in Calm     95 % 0.00 in
04:56 75.9 °F 74.3 °F 30.00 in Calm     95 % 0.00 in
05:01 76.1 °F 74.5 °F 30.00 in Calm     95 % 0.00 in
05:06 76.1 °F 74.5 °F 30.00 in Calm     95 % 0.00 in
05:11 76.1 °F 74.5 °F 30.01 in Calm   1.0 mph 95 % 0.00 in
05:16 75.9 °F 74.3 °F 30.00 in Calm   1.0 mph 95 % 0.00 in
05:21 75.9 °F 74.3 °F 30.00 in Calm   1.0 mph 95 % 0.00 in
05:26 75.9 °F 74.3 °F 30.00 in Calm     95 % 0.00 in
05:31 75.7 °F 74.1 °F 30.00 in Calm     95 % 0.00 in
05:36 75.6 °F 73.9 °F 30.00 in Calm     95 % 0.00 in
05:41 75.7 °F 74.5 °F 30.00 in Calm   1.0 mph 96 % 0.00 in
05:46 75.9 °F 74.7 °F 30.00 in Calm   1.0 mph 96 % 0.00 in
05:51 75.9 °F 74.7 °F 30.00 in Calm   1.0 mph 96 % 0.00 in
05:56 75.9 °F 74.7 °F 30.00 in Calm     96 % 0.00 in
06:01 75.9 °F 74.7 °F 30.00 in Calm     96 % 0.00 in
06:06 75.7 °F 74.5 °F 30.00 in Calm     96 % 0.00 in
06:11 75.9 °F 74.7 °F 30.00 in Calm     96 % 0.00 in
06:16 75.9 °F 74.7 °F 30.01 in Calm     96 % 0.00 in
06:21 75.9 °F 74.7 °F 30.00 in Calm     96 % 0.00 in
06:26 75.9 °F 74.7 °F 30.00 in Calm   1.0 mph 96 % 0.00 in
06:31 75.7 °F 74.5 °F 30.01 in Calm   1.0 mph 96 % 0.00 in
06:36 75.7 °F 74.5 °F 30.01 in Calm   1.0 mph 96 % 0.00 in
06:41 75.7 °F 74.5 °F 30.01 in Calm     96 % 0.00 in
06:46 75.7 °F 74.5 °F 30.01 in Calm     96 % 0.00 in
06:51 75.7 °F 74.5 °F 30.01 in Calm     96 % 0.00 in
06:56 75.7 °F 74.5 °F 30.02 in Calm     96 % 0.00 in
07:01 75.6 °F 74.3 °F 30.01 in Calm     96 % 0.00 in
07:06 75.7 °F 74.5 °F 30.01 in Calm     96 % 0.00 in
07:11 75.7 °F 74.8 °F 30.01 in Calm     97 % 0.00 in
07:16 75.7 °F 74.8 °F 30.02 in Calm     97 % 0.00 in
07:21 75.7 °F 74.8 °F 30.02 in Calm     97 % 0.00 in
07:26 75.7 °F 74.8 °F 30.02 in Calm     97 % 0.00 in
07:31 76.1 °F 75.2 °F 30.02 in Calm     97 % 0.00 in
07:36 76.5 °F 75.6 °F 30.02 in Calm   1.0 mph 97 % 0.00 in
07:41 76.8 °F 75.9 °F 30.02 in Calm   1.0 mph 97 % 0.00 in
07:46 77.2 °F 75.9 °F 30.03 in NNW 1.0 mph 1.0 mph 96 % 0.00 in
07:51 77.7 °F 76.5 °F 30.03 in NW 1.0 mph 2.0 mph 96 % 0.00 in
07:57 78.3 °F 76.6 °F 30.03 in Calm   2.0 mph 95 % 0.00 in
08:02 79.0 °F 77.2 °F 30.03 in Calm   2.0 mph 94 % 0.00 in
08:07 79.7 °F 77.9 °F 30.04 in Calm   2.0 mph 94 % 0.00 in
08:12 80.2 °F 77.7 °F 30.04 in NW 1.0 mph 2.0 mph 92 % 0.00 in
08:17 80.4 °F 77.5 °F 30.04 in Calm   2.0 mph 91 % 0.00 in
08:22 81.3 °F 78.4 °F 30.04 in North 1.0 mph 2.0 mph 91 % 0.00 in
08:27 82.2 °F 78.3 °F 30.04 in NW 1.0 mph 2.0 mph 88 % 0.00 in
08:32 82.4 °F 78.1 °F 30.04 in NW 1.0 mph 2.0 mph 87 % 0.00 in
08:37 82.6 °F 78.3 °F 30.04 in Calm   2.0 mph 87 % 0.00 in
08:41 83.5 °F 78.8 °F 30.04 in Calm   2.0 mph 86 % 0.00 in
08:46 84.0 °F 78.6 °F 30.04 in Calm   2.0 mph 84 % 0.00 in
08:51 84.2 °F 78.1 °F 30.04 in NW 1.0 mph 2.0 mph 82 % 0.00 in
08:57 84.0 °F 78.3 °F 30.04 in NW 2.0 mph 2.0 mph 83 % 0.00 in
09:02 84.4 °F 79.0 °F 30.04 in Calm   3.0 mph 84 % 0.00 in
09:07 85.5 °F 79.0 °F 30.04 in Calm   3.0 mph 81 % 0.00 in
09:12 86.0 °F 78.8 °F 30.04 in West 1.0 mph 3.0 mph 79 % 0.00 in
09:17 86.4 °F 78.6 °F 30.04 in NW 2.0 mph 2.0 mph 78 % 0.00 in
09:22 86.4 °F 78.6 °F 30.05 in SW 2.0 mph 2.0 mph 78 % 0.00 in
09:27 87.1 °F 79.3 °F 30.05 in Calm   3.0 mph 78 % 0.00 in
09:32 87.6 °F 79.5 °F 30.05 in Calm   3.0 mph 77 % 0.00 in
09:37 88.3 °F 79.3 °F 30.05 in Calm   3.0 mph 75 % 0.00 in
09:42 89.2 °F 79.5 °F 30.05 in NNW 1.0 mph 3.0 mph 73 % 0.00 in
09:47 89.8 °F 79.5 °F 30.05 in West 1.0 mph 3.0 mph 72 % 0.00 in
09:52 89.2 °F 79.0 °F 30.05 in West 1.0 mph 3.0 mph 72 % 0.00 in
09:57 88.5 °F 78.3 °F 30.05 in SW 1.0 mph 3.0 mph 72 % 0.00 in
10:02 88.0 °F 77.9 °F 30.06 in North 1.0 mph 3.0 mph 72 % 0.00 in
10:07 87.1 °F 77.0 °F 30.06 in Calm   3.0 mph 72 % 0.00 in
10:12 87.4 °F 78.1 °F 30.06 in Calm   3.0 mph 74 % 0.00 in
10:17 88.0 °F 78.6 °F 30.06 in West 3.0 mph 3.0 mph 74 % 0.00 in
10:22 88.5 °F 79.2 °F 30.06 in NNW 1.0 mph 3.0 mph 74 % 0.00 in
10:27 89.8 °F 79.2 °F 30.06 in SW 2.0 mph 3.0 mph 71 % 0.00 in
10:32 89.8 °F 76.8 °F 30.06 in NW 2.0 mph 3.0 mph 66 % 0.00 in
10:37 89.4 °F 77.0 °F 30.06 in Calm   5.0 mph 67 % 0.00 in
10:42 90.7 °F 78.6 °F 30.06 in South 2.0 mph 5.0 mph 68 % 0.00 in
10:47 91.8 °F 77.9 °F 30.06 in Calm   5.0 mph 64 % 0.00 in
10:52 92.1 °F 77.2 °F 30.07 in Calm   3.0 mph 62 % 0.00 in
10:57 92.7 °F 77.2 °F 30.06 in South 1.0 mph 3.0 mph 61 % 0.00 in
11:02 93.0 °F 79.0 °F 30.06 in SSW 3.0 mph 3.0 mph 64 % 0.00 in
11:07 93.0 °F 79.0 °F 30.06 in SSW 1.0 mph 5.0 mph 64 % 0.00 in
11:12 93.0 °F 78.1 °F 30.06 in SSE 3.0 mph 5.0 mph 62 % 0.00 in
11:17 92.5 °F 78.1 °F 30.06 in SSW 2.0 mph 5.0 mph 63 % 0.00 in
11:22 91.6 °F 77.2 °F 30.06 in Calm   4.0 mph 63 % 0.00 in
11:27 91.0 °F 76.6 °F 30.06 in Calm   4.0 mph 63 % 0.00 in
11:32 91.0 °F 76.6 °F 30.06 in SE 1.0 mph 3.0 mph 63 % 0.00 in
11:34 91.2 °F 76.8 °F 30.06 in South 1.0 mph 3.0 mph 63 % 0.00 in
11:39 91.2 °F 75.9 °F 30.06 in SSE 2.0 mph 3.0 mph 61 % 0.00 in
11:44 91.0 °F 76.3 °F 30.06 in Calm   4.0 mph 62 % 0.00 in
11:49 91.0 °F 75.7 °F 30.06 in Calm   4.0 mph 61 % 0.00 in
11:54 90.7 °F 75.4 °F 30.06 in East 1.0 mph 4.0 mph 61 % 0.00 in
11:59 90.1 °F 74.8 °F 30.06 in Calm   2.0 mph 61 % 0.00 in
12:04 90.1 °F 74.8 °F 30.06 in SSE 1.0 mph 2.0 mph 61 % 0.00 in
12:10 90.3 °F 75.9 °F 30.06 in ESE 3.0 mph 3.0 mph 63 % 0.00 in
12:15 90.7 °F 75.9 °F 30.05 in East 3.0 mph 4.0 mph 62 % 0.00 in
12:20 91.6 °F 76.3 °F 30.05 in East 2.0 mph 6.0 mph 61 % 0.00 in
12:25 92.1 °F 74.7 °F 30.05 in Calm   6.0 mph 57 % 0.00 in
12:30 92.8 °F 75.4 °F 30.05 in ENE 1.0 mph 6.0 mph 57 % 0.00 in
12:35 93.4 °F 75.4 °F 30.05 in Calm   5.0 mph 56 % 0.00 in
12:40 93.9 °F 76.3 °F 30.04 in East 2.0 mph 5.0 mph 57 % 0.00 in
12:45 94.3 °F 75.6 °F 30.04 in North 3.0 mph 4.0 mph 55 % 0.00 in
12:50 94.3 °F 75.0 °F 30.04 in ESE 3.0 mph 5.0 mph 54 % 0.00 in
12:55 93.9 °F 75.2 °F 30.04 in SE 3.0 mph 7.0 mph 55 % 0.00 in
13:00 94.3 °F 73.9 °F 30.04 in East 2.0 mph 7.0 mph 52 % 0.00 in
13:05 94.5 °F 74.1 °F 30.03 in ESE 4.0 mph 7.0 mph 52 % 0.00 in
13:10 94.8 °F 73.2 °F 30.03 in West 1.0 mph 7.0 mph 50 % 0.00 in
13:15 94.8 °F 75.0 °F 30.03 in Calm   5.0 mph 53 % 0.00 in
13:20 95.4 °F 75.6 °F 30.03 in ENE 1.0 mph 5.0 mph 53 % 0.00 in
13:25 95.7 °F 75.9 °F 30.03 in South 6.0 mph 6.0 mph 53 % 0.00 in
13:30 95.4 °F 74.3 °F 30.03 in NNE 1.0 mph 9.0 mph 51 % 0.00 in
13:35 95.2 °F 73.6 °F 30.02 in SSE 8.0 mph 9.0 mph 50 % 0.00 in
13:40 95.4 °F 75.6 °F 30.02 in SSW 1.0 mph 9.0 mph 53 % 0.00 in
13:45 96.1 °F 74.5 °F 30.02 in NE 2.0 mph 8.0 mph 50 % 0.00 in
13:55 96.1 °F 73.8 °F 30.02 in Calm   7.0 mph 49 % 0.00 in
14:00 95.5 °F 74.5 °F 30.02 in SE 6.0 mph 6.0 mph 51 % 0.00 in
14:05 95.7 °F 75.9 °F 30.02 in ENE 3.0 mph 8.0 mph 53 % 0.00 in
14:10 96.3 °F 74.7 °F 30.02 in NNE 1.0 mph 8.0 mph 50 % 0.00 in
14:15 95.2 °F 74.1 °F 30.02 in ENE 1.0 mph 6.0 mph 51 % 0.00 in
14:20 94.6 °F 74.3 °F 30.02 in NE 2.0 mph 6.0 mph 52 % 0.00 in
14:25 94.1 °F 73.8 °F 30.01 in NNE 1.0 mph 6.0 mph 52 % 0.00 in
14:30 93.9 °F 73.6 °F 30.01 in Calm   4.0 mph 52 % 0.00 in
14:31 94.1 °F 73.8 °F 30.01 in SE 4.0 mph 4.0 mph 52 % 0.00 in
14:36 94.6 °F 74.3 °F 30.01 in Calm   8.0 mph 52 % 0.00 in
14:41 95.4 °F 73.8 °F 30.01 in NNE 2.0 mph 8.0 mph 50 % 0.00 in
14:46 95.5 °F 74.5 °F 30.01 in Calm   8.0 mph 51 % 0.00 in
14:51 96.1 °F 75.0 °F 30.00 in Calm   5.0 mph 51 % 0.00 in
14:56 95.7 °F 72.9 °F 30.00 in North 1.0 mph 5.0 mph 48 % 0.00 in
15:01 94.8 °F 73.2 °F 30.00 in Calm   6.0 mph 50 % 0.00 in
15:07 94.6 °F 72.5 °F 30.00 in SE 3.0 mph 6.0 mph 49 % 0.00 in
15:11 95.2 °F 73.6 °F 29.99 in ESE 3.0 mph 6.0 mph 50 % 0.00 in
15:17 95.5 °F 72.1 °F 29.99 in ENE 5.0 mph 7.0 mph 47 % 0.00 in
15:22 95.5 °F 72.1 °F 29.99 in NNW 2.0 mph 7.0 mph 47 % 0.00 in
15:27 94.8 °F 71.4 °F 29.99 in SE 3.0 mph 7.0 mph 47 % 0.00 in
15:32 94.3 °F 70.9 °F 29.98 in Calm   6.0 mph 47 % 0.00 in
15:37 94.6 °F 73.0 °F 29.98 in SE 2.0 mph 6.0 mph 50 % 0.00 in
15:42 95.4 °F 73.2 °F 29.98 in SSE 2.0 mph 8.0 mph 49 % 0.00 in
15:47 95.5 °F 73.4 °F 29.98 in ENE 2.0 mph 8.0 mph 49 % 0.00 in
15:52 95.7 °F 72.9 °F 29.98 in ENE 4.0 mph 8.0 mph 48 % 0.00 in
15:57 96.3 °F 72.7 °F 29.97 in SSW 2.0 mph 7.0 mph 47 % 0.00 in
16:02 97.0 °F 73.4 °F 29.97 in SE 3.0 mph 7.0 mph 47 % 0.00 in
16:07 97.0 °F 71.4 °F 29.97 in SE 5.0 mph 6.0 mph 44 % 0.00 in
16:12 96.6 °F 72.5 °F 29.97 in SSW 2.0 mph 7.0 mph 46 % 0.00 in
16:17 97.0 °F 71.4 °F 29.96 in SSW 4.0 mph 7.0 mph 44 % 0.00 in
16:22 96.8 °F 73.9 °F 29.96 in SE 4.0 mph 7.0 mph 48 % 0.00 in
16:27 96.6 °F 72.5 °F 29.96 in ESE 8.0 mph 8.0 mph 46 % 0.00 in
16:32 96.3 °F 72.7 °F 29.96 in SE 3.0 mph 8.0 mph 47 % 0.00 in
16:37 96.6 °F 72.5 °F 29.96 in SSW 2.0 mph 8.0 mph 46 % 0.00 in
16:42 96.8 °F 72.7 °F 29.96 in ESE 4.0 mph 8.0 mph 46 % 0.00 in
16:47 96.3 °F 72.1 °F 29.96 in SE 7.0 mph 10.0 mph 46 % 0.00 in
16:52 96.1 °F 72.5 °F 29.96 in ENE 3.0 mph 10.0 mph 47 % 0.00 in
16:57 96.1 °F 72.0 °F 29.96 in SE 2.0 mph 10.0 mph 46 % 0.00 in
17:02 96.3 °F 73.4 °F 29.95 in SE 5.0 mph 8.0 mph 48 % 0.00 in
17:07 96.3 °F 73.4 °F 29.95 in South 1.0 mph 6.0 mph 48 % 0.00 in
17:12 96.4 °F 72.9 °F 29.95 in ESE 2.0 mph 5.0 mph 47 % 0.00 in
17:17 96.3 °F 73.4 °F 29.95 in SSE 4.0 mph 8.0 mph 48 % 0.00 in
17:22 95.7 °F 72.9 °F 29.95 in ENE 1.0 mph 8.0 mph 48 % 0.00 in
17:27 95.7 °F 72.3 °F 29.95 in NE 1.0 mph 8.0 mph 47 % 0.00 in
17:32 96.1 °F 73.2 °F 29.94 in ENE 4.0 mph 7.0 mph 48 % 0.00 in
17:37 95.9 °F 72.5 °F 29.95 in ESE 3.0 mph 6.0 mph 47 % 0.00 in
17:42 96.1 °F 72.0 °F 29.95 in ENE 1.0 mph 5.0 mph 46 % 0.00 in
17:47 96.3 °F 72.1 °F 29.94 in ENE 8.0 mph 8.0 mph 46 % 0.00 in
17:52 96.1 °F 72.0 °F 29.94 in East 6.0 mph 10.0 mph 46 % 0.00 in
17:57 95.7 °F 71.6 °F 29.94 in Calm   10.0 mph 46 % 0.00 in
18:02 95.5 °F 71.4 °F 29.94 in East 1.0 mph 10.0 mph 46 % 0.00 in
18:07 95.4 °F 72.0 °F 29.94 in ENE 1.0 mph 8.0 mph 47 % 0.00 in
18:10 95.4 °F 72.0 °F 29.94 in SE 2.0 mph 6.0 mph 47 % 0.00 in
18:15 95.2 °F 71.8 °F 29.94 in ENE 5.0 mph 6.0 mph 47 % 0.00 in
18:20 95.0 °F 72.1 °F 29.94 in East 1.0 mph 6.0 mph 48 % 0.00 in
18:25 95.2 °F 73.0 °F 29.94 in SE 3.0 mph 6.0 mph 49 % 0.00 in
18:30 94.6 °F 72.5 °F 29.94 in East 6.0 mph 7.0 mph 49 % 0.00 in
18:35 94.1 °F 73.8 °F 29.94 in SE 2.0 mph 7.0 mph 52 % 0.00 in
18:40 93.6 °F 73.2 °F 29.94 in SE 5.0 mph 8.0 mph 52 % 0.00 in
18:45 93.0 °F 73.4 °F 29.94 in SE 3.0 mph 8.0 mph 53 % 0.00 in
18:50 92.7 °F 73.6 °F 29.94 in SSE 3.0 mph 11.0 mph 54 % 0.00 in
18:55 92.5 °F 73.9 °F 29.94 in ESE 6.0 mph 11.0 mph 55 % 0.00 in
19:00 92.3 °F 73.8 °F 29.94 in East 1.0 mph 11.0 mph 55 % 0.00 in
19:05 92.5 °F 73.9 °F 29.94 in SE 3.0 mph 8.0 mph 55 % 0.00 in
19:10 92.5 °F 73.9 °F 29.94 in ENE 3.0 mph 8.0 mph 55 % 0.00 in
19:15 92.1 °F 73.0 °F 29.94 in SE 3.0 mph 9.0 mph 54 % 0.00 in
19:20 91.8 °F 73.2 °F 29.94 in SE 4.0 mph 9.0 mph 55 % 0.00 in
19:25 91.6 °F 73.6 °F 29.94 in South 4.0 mph 9.0 mph 56 % 0.00 in
19:30 91.4 °F 73.4 °F 29.94 in SE 3.0 mph 7.0 mph 56 % 0.00 in
19:35 91.2 °F 72.9 °F 29.94 in ESE 2.0 mph 9.0 mph 55 % 0.00 in
19:40 91.0 °F 73.2 °F 29.94 in ESE 2.0 mph 9.0 mph 56 % 0.00 in
19:45 90.7 °F 73.9 °F 29.94 in SE 6.0 mph 9.0 mph 58 % 0.00 in
19:50 90.3 °F 74.5 °F 29.94 in East 4.0 mph 7.0 mph 60 % 0.00 in
19:55 90.0 °F 75.2 °F 29.94 in SE 3.0 mph 8.0 mph 62 % 0.00 in
20:00 89.6 °F 75.4 °F 29.94 in ENE 5.0 mph 8.0 mph 63 % 0.00 in
20:05 89.2 °F 75.9 °F 29.94 in ENE 7.0 mph 9.0 mph 65 % 0.00 in
20:10 89.1 °F 75.7 °F 29.94 in SE 2.0 mph 9.0 mph 65 % 0.00 in
20:15 88.9 °F 75.6 °F 29.94 in SE 3.0 mph 10.0 mph 65 % 0.00 in
20:20 88.5 °F 75.7 °F 29.94 in SE 3.0 mph 10.0 mph 66 % 0.00 in
20:25 88.3 °F 75.6 °F 29.94 in SE 2.0 mph 10.0 mph 66 % 0.00 in
20:30 88.2 °F 75.4 °F 29.94 in SE 4.0 mph 9.0 mph 66 % 0.00 in
20:35 88.0 °F 75.6 °F 29.95 in SE 2.0 mph 9.0 mph 67 % 0.00 in
20:40 87.8 °F 75.4 °F 29.95 in ESE 3.0 mph 9.0 mph 67 % 0.00 in
20:41 87.8 °F 75.4 °F 29.95 in SE 1.0 mph 9.0 mph 67 % 0.00 in
20:47 87.6 °F 75.4 °F 29.95 in SE 3.0 mph 8.0 mph 67 % 0.00 in
20:52 87.4 °F 75.2 °F 29.95 in SE 3.0 mph 9.0 mph 67 % 0.00 in
20:57 87.4 °F 75.2 °F 29.95 in ESE 2.0 mph 9.0 mph 67 % 0.00 in
21:02 87.3 °F 75.4 °F 29.95 in SE 2.0 mph 9.0 mph 68 % 0.00 in
21:07 87.1 °F 75.2 °F 29.95 in SE 3.0 mph 8.0 mph 68 % 0.00 in
21:11 87.1 °F 75.2 °F 29.95 in East 2.0 mph 5.0 mph 68 % 0.00 in
21:16 86.9 °F 75.0 °F 29.96 in ESE 5.0 mph 5.0 mph 68 % 0.00 in
21:21 86.7 °F 74.8 °F 29.96 in SSE 1.0 mph 6.0 mph 68 % 0.00 in
21:27 86.7 °F 74.8 °F 29.96 in SSE 2.0 mph 6.0 mph 68 % 0.00 in
21:31 86.5 °F 75.2 °F 29.97 in ESE 2.0 mph 6.0 mph 69 % 0.00 in
21:41 86.4 °F 75.0 °F 29.97 in SSE 1.0 mph 7.0 mph 69 % 0.00 in
21:46 86.2 °F 74.8 °F 29.97 in SSE 4.0 mph 7.0 mph 69 % 0.00 in
21:52 86.0 °F 74.7 °F 29.97 in SSW 4.0 mph 6.0 mph 69 % 0.00 in
21:57 85.8 °F 74.5 °F 29.96 in SSE 4.0 mph 7.0 mph 69 % 0.00 in
22:02 85.6 °F 74.3 °F 29.97 in ESE 2.0 mph 7.0 mph 69 % 0.00 in
22:07 85.5 °F 74.5 °F 29.97 in South 2.0 mph 7.0 mph 70 % 0.00 in
22:12 85.3 °F 74.3 °F 29.96 in ESE 6.0 mph 7.0 mph 70 % 0.00 in
22:17 85.1 °F 74.1 °F 29.96 in SSE 3.0 mph 7.0 mph 70 % 0.00 in
22:22 84.9 °F 74.5 °F 29.96 in South 1.0 mph 7.0 mph 71 % 0.00 in
22:24 84.9 °F 74.5 °F 29.96 in South 3.0 mph 7.0 mph 71 % 0.00 in
22:29 84.7 °F 74.3 °F 29.96 in South 1.0 mph 7.0 mph 71 % 0.00 in
22:34 84.7 °F 74.3 °F 29.96 in Calm   5.0 mph 71 % 0.00 in
22:39 84.6 °F 74.5 °F 29.96 in Calm   4.0 mph 72 % 0.00 in
22:44 84.2 °F 74.1 °F 29.97 in South 2.0 mph 4.0 mph 72 % 0.00 in
22:49 84.0 °F 74.5 °F 29.97 in SE 1.0 mph 3.0 mph 73 % 0.00 in
22:54 84.0 °F 74.5 °F 29.97 in SSE 1.0 mph 5.0 mph 73 % 0.00 in
22:59 83.8 °F 74.7 °F 29.97 in SSW 2.0 mph 5.0 mph 74 % 0.00 in
23:04 83.8 °F 75.0 °F 29.97 in SSE 1.0 mph 5.0 mph 75 % 0.00 in
23:09 83.7 °F 75.2 °F 29.96 in SSE 2.0 mph 4.0 mph 76 % 0.00 in
23:14 83.5 °F 75.0 °F 29.97 in SSE 2.0 mph 6.0 mph 76 % 0.00 in
23:19 83.5 °F 75.6 °F 29.97 in South 3.0 mph 6.0 mph 77 % 0.00 in
23:24 83.5 °F 75.6 °F 29.97 in SSW 1.0 mph 6.0 mph 77 % 0.00 in
23:29 83.3 °F 75.4 °F 29.97 in South 1.0 mph 4.0 mph 77 % 0.00 in
23:34 83.1 °F 75.6 °F 29.97 in Calm   4.0 mph 78 % 0.00 in
23:39 82.9 °F 75.4 °F 29.97 in South 1.0 mph 3.0 mph 78 % 0.00 in
23:44 82.8 °F 75.6 °F 29.97 in SSW 2.0 mph 3.0 mph 79 % 0.00 in
23:49 82.8 °F 75.6 °F 29.97 in SSE 2.0 mph 3.0 mph 79 % 0.00 in
23:54 82.8 °F 75.6 °F 29.97 in SE 2.0 mph 3.0 mph 79 % 0.00 in
23:59 82.8 °F 75.6 °F 29.97 in SSW 1.0 mph 3.0 mph 79 % 0.00 in
Spring, Texas: Villages of Bridgestone
Compliments of Weather Underground - 2.75 mb

Script developed by  Jim McMurry - jmcmurry@mwt.net Adapted for the template by  Wim van der Kuil - Leuven-Template.eu

You find our weather info also at:

UK Metoffice

WeatherCloud

Weather Underground

Mid-South Weather Network

AWEKAS

Citizen Weather Observer Program (CWOP)

HAMweather, WeatherForYou, PWS Weather

Equipment we use:

Weather-station
Davis Vantage Vue

Weather-program
Meteohub

Weather-server
Debian 7.9 x86 (Guest)

Provider
DreamHost

Davis Vantage Vue

Meteohub

Debian 7.9 x86 (Guest)

DreamHost